createdAt,value
2022-10-29T00:02:56.139Z,99541.70
2022-10-29T00:06:15.590Z,99545.67
2022-10-29T00:09:29.272Z,99555.97
2022-10-29T00:12:49.004Z,99547.52
2022-10-29T00:16:05.104Z,99563.44
2022-10-29T00:19:21.276Z,99557.14
2022-10-29T00:22:37.406Z,99545.84
2022-10-29T00:25:53.615Z,99540.22
2022-10-29T00:29:09.695Z,99537.38
2022-10-29T00:32:25.893Z,99537.06
2022-10-29T00:35:41.976Z,99534.06
2022-10-29T00:38:59.214Z,99530.58
2022-10-29T00:42:21.764Z,99532.91
2022-10-29T00:45:37.917Z,99527.11
2022-10-29T00:48:58.571Z,99524.45
2022-10-29T00:52:16.242Z,99521.16
2022-10-29T00:55:36.080Z,99516.66
2022-10-29T00:58:53.256Z,99513.52
2022-10-29T01:02:09.639Z,99510.36
2022-10-29T01:05:29.595Z,99520.45
2022-10-29T01:08:45.812Z,99516.17
2022-10-29T01:12:12.009Z,99514.16
2022-10-29T01:15:35.021Z,99515.50
2022-10-29T01:18:55.865Z,99509.69
2022-10-29T01:22:15.642Z,99515.33
2022-10-29T01:26:08.492Z,99511.82
2022-10-29T01:29:37.468Z,99503.03
2022-10-29T01:33:11.028Z,99501.69
2022-10-29T01:36:34.132Z,99507.18
2022-10-29T01:39:56.554Z,99500.38
2022-10-29T01:46:39.630Z,99493.90
2022-10-29T01:49:59.778Z,99482.92
2022-10-29T01:53:17.311Z,99489.08
2022-10-29T01:56:34.189Z,99488.09
2022-10-29T01:59:56.054Z,99483.45
2022-10-29T02:03:24.813Z,99477.97
2022-10-29T02:06:48.843Z,99472.17
2022-10-29T02:10:11.709Z,99469.37
2022-10-29T02:13:33.168Z,99481.16
2022-10-29T02:16:50.174Z,99467.06
2022-10-29T02:20:08.387Z,99459.11
2022-10-29T02:23:29.822Z,99452.94
2022-10-29T02:26:45.983Z,99459.73
2022-10-29T02:30:02.322Z,99456.91
2022-10-29T02:33:18.376Z,99457.90
2022-10-29T02:36:34.523Z,99449.44
2022-10-29T02:39:50.516Z,99461.54
2022-10-29T02:43:06.473Z,99452.91
2022-10-29T02:46:26.803Z,99449.26
2022-10-29T02:49:42.802Z,99457.05
2022-10-29T02:52:59.066Z,99455.41
2022-10-29T02:56:16.579Z,99469.33
2022-10-29T02:59:32.636Z,99464.02
2022-10-29T03:02:49.023Z,99459.55
2022-10-29T03:06:05.596Z,99456.23
2022-10-29T03:09:21.666Z,99455.06
2022-10-29T03:12:38.115Z,99446.42
2022-10-29T03:15:54.805Z,99442.77
2022-10-29T03:19:11.733Z,99458.70
2022-10-29T03:22:27.678Z,99457.72
2022-10-29T03:25:43.773Z,99463.38
2022-10-29T03:29:02.901Z,99450.42
2022-10-29T03:32:19.049Z,99446.28
2022-10-29T03:35:36.582Z,99447.95
2022-10-29T03:38:52.656Z,99446.11
2022-10-29T03:42:09.132Z,99447.45
2022-10-29T03:45:25.820Z,99460.91
2022-10-29T03:48:42.214Z,99454.93
2022-10-29T03:51:58.569Z,99440.52
2022-10-29T03:55:16.505Z,99435.53
2022-10-29T03:58:33.418Z,99445.33
2022-10-29T04:01:49.467Z,99443.50
2022-10-29T04:05:05.823Z,99426.90
2022-10-29T04:08:21.810Z,99421.94
2022-10-29T04:11:38.968Z,99421.13
2022-10-29T04:14:55.008Z,99425.09
2022-10-29T04:18:11.793Z,99443.85
2022-10-29T04:23:25.355Z,99449.16
2022-10-29T04:27:07.767Z,99455.63
2022-10-29T04:31:24.407Z,99453.64
2022-10-29T04:34:40.395Z,99456.97
2022-10-29T04:38:00.476Z,99452.66
2022-10-29T04:41:16.561Z,99451.48
2022-10-29T04:44:32.607Z,99443.88
2022-10-29T04:47:48.600Z,99439.73
2022-10-29T04:51:04.963Z,99444.37
2022-10-29T04:54:21.319Z,99451.34
2022-10-29T04:57:39.010Z,99450.00
2022-10-29T05:00:56.442Z,99440.38
2022-10-29T05:04:12.654Z,99451.84
2022-10-29T05:07:28.731Z,99453.64
2022-10-29T05:10:47.004Z,99465.42
2022-10-29T05:14:03.243Z,99460.78
2022-10-29T05:17:19.324Z,99472.22
2022-10-29T05:20:36.504Z,99472.89
2022-10-29T05:23:52.464Z,99455.80
2022-10-29T05:27:08.531Z,99452.34
2022-10-29T05:30:24.705Z,99455.48
2022-10-29T05:33:40.845Z,99461.93
2022-10-29T05:36:56.973Z,99456.80
2022-10-29T05:40:24.463Z,99455.95
2022-10-29T05:43:40.512Z,99442.54
2022-10-29T05:47:01.689Z,99418.80
2022-10-29T05:50:26.276Z,99424.95
2022-10-29T05:53:42.575Z,99430.91
2022-10-29T05:56:58.824Z,99437.88
2022-10-29T06:00:18.403Z,99448.34
2022-10-29T06:03:34.499Z,99447.98
2022-10-29T06:06:50.633Z,99454.97
2022-10-29T06:10:09.565Z,99451.14
2022-10-29T06:13:27.265Z,99472.70
2022-10-29T06:16:43.262Z,99481.16
2022-10-29T06:19:59.557Z,99463.25
2022-10-29T06:23:18.688Z,99473.86
2022-10-29T06:26:47.019Z,99462.89
2022-10-29T06:30:03.124Z,99480.98
2022-10-29T06:33:19.482Z,99483.28
2022-10-29T06:36:35.505Z,99469.69
2022-10-29T06:39:51.666Z,99477.30
2022-10-29T06:43:12.792Z,99480.27
2022-10-29T06:46:29.074Z,99482.91
2022-10-29T06:49:45.122Z,99483.22
2022-10-29T06:53:10.654Z,99489.64
2022-10-29T06:56:26.787Z,99488.75
2022-10-29T06:59:48.570Z,99501.31
2022-10-29T07:03:07.711Z,99509.75
2022-10-29T07:27:00.116Z,99539.81
2022-10-29T08:18:34.475Z,99570.95
2022-10-29T08:57:27.101Z,99573.81
2022-10-29T09:00:47.289Z,99567.72
2022-10-29T09:04:06.520Z,99569.27
2022-10-29T09:07:37.093Z,99574.67
2022-10-29T09:10:58.544Z,99566.30
2022-10-29T09:14:29.906Z,99573.38
2022-10-29T09:21:15.279Z,99573.67
2022-10-29T09:24:38.506Z,99570.20
2022-10-29T09:28:06.109Z,99571.69
2022-10-29T09:31:38.448Z,99560.00
2022-10-29T09:34:58.592Z,99561.89
2022-10-29T09:38:34.526Z,99546.85
2022-10-29T09:42:01.097Z,99555.94
2022-10-29T09:45:24.720Z,99556.95
2022-10-29T09:48:49.584Z,99564.14
2022-10-29T09:52:10.954Z,99556.50
2022-10-29T09:55:33.222Z,99559.13
2022-10-29T09:58:56.276Z,99552.33
2022-10-29T10:02:44.095Z,99546.70
2022-10-29T10:06:15.964Z,99548.50
2022-10-29T10:09:32.334Z,99541.02
2022-10-29T10:12:59.048Z,99544.09
2022-10-29T10:16:20.809Z,99544.83
2022-10-29T10:19:39.019Z,99534.48
2022-10-29T10:23:00.559Z,99535.73
2022-10-29T10:26:40.285Z,99536.16
2022-10-29T10:30:54.100Z,99525.58
2022-10-29T10:34:23.196Z,99530.65
2022-10-29T10:37:42.853Z,99528.91
2022-10-29T10:41:11.731Z,99523.53
2022-10-29T10:44:30.228Z,99522.59
2022-10-29T10:47:49.351Z,99520.13
2022-10-29T10:51:26.206Z,99501.74
2022-10-29T10:54:51.140Z,99497.78
2022-10-29T10:58:14.889Z,99495.45
2022-10-29T11:01:37.704Z,99497.68
2022-10-29T11:05:00.844Z,99496.64
2022-10-29T11:08:26.365Z,99491.72
2022-10-29T11:11:48.454Z,99493.19
2022-10-29T11:15:14.604Z,99480.04
2022-10-29T11:27:23.464Z,99481.25
2022-10-29T11:31:13.591Z,99466.17
2022-10-29T11:35:19.608Z,99464.91
2022-10-29T11:42:30.040Z,99458.88
2022-10-29T11:46:03.672Z,99456.35
2022-10-29T11:49:26.314Z,99464.64
2022-10-29T11:52:48.862Z,99459.92
2022-10-29T11:56:13.523Z,99467.17
2022-10-29T11:59:41.007Z,99462.83
2022-10-29T12:03:31.041Z,99463.28
2022-10-29T12:06:55.264Z,99463.70
2022-10-29T12:10:36.584Z,99462.28
2022-10-29T12:14:02.293Z,99454.06
2022-10-29T12:17:35.545Z,99457.78
2022-10-29T12:20:59.564Z,99465.03
2022-10-29T12:24:47.642Z,99453.02
2022-10-29T12:28:17.655Z,99466.63
2022-10-29T12:31:42.947Z,99456.48
2022-10-29T12:35:06.228Z,99455.38
2022-10-29T12:38:43.225Z,99449.55
2022-10-29T12:42:05.386Z,99440.23
2022-10-29T12:45:39.964Z,99435.89
2022-10-29T12:49:03.929Z,99436.34
2022-10-29T12:52:25.592Z,99431.43
2022-10-29T12:55:45.150Z,99428.13
2022-10-29T12:59:04.052Z,99427.74
2022-10-29T13:02:36.155Z,99420.34
2022-10-29T13:06:00.112Z,99416.22
2022-10-29T13:09:27.419Z,99421.02
2022-10-29T13:13:18.954Z,99431.14
2022-10-29T13:16:40.538Z,99414.64
2022-10-29T13:20:04.253Z,99418.81
2022-10-29T13:23:41.107Z,99423.34
2022-10-29T13:27:40.885Z,99425.64
2022-10-29T13:31:00.033Z,99417.00
2022-10-29T13:34:16.624Z,99419.30
2022-10-29T13:37:57.703Z,99409.81
2022-10-29T13:41:24.256Z,99408.39
2022-10-29T13:44:43.324Z,99408.59
2022-10-29T13:48:03.013Z,99411.50
2022-10-29T13:51:30.853Z,99404.08
2022-10-29T13:54:52.775Z,99405.96
2022-10-29T13:58:19.308Z,99408.25
2022-10-29T14:01:39.911Z,99411.39
2022-10-29T14:05:00.638Z,99411.39
2022-10-29T14:08:23.264Z,99411.19
2022-10-29T14:11:44.594Z,99404.62
2022-10-29T14:15:08.977Z,99409.40
2022-10-29T14:18:33.010Z,99417.05
2022-10-29T14:21:52.477Z,99422.03
2022-10-29T14:25:25.488Z,99423.28
2022-10-29T14:28:42.774Z,99416.91
2022-10-29T14:32:16.473Z,99421.65
2022-10-29T14:35:33.905Z,99410.13
2022-10-29T14:38:55.186Z,99406.42
2022-10-29T14:42:15.356Z,99402.94
2022-10-29T14:45:35.966Z,99396.15
2022-10-29T14:49:04.851Z,99395.75
2022-10-29T14:52:34.272Z,99398.48
2022-10-29T14:55:56.337Z,99393.52
2022-10-29T14:59:28.080Z,99392.31
2022-10-29T15:02:47.848Z,99386.14
2022-10-29T15:06:25.377Z,99393.38
2022-10-29T15:09:48.116Z,99406.59
2022-10-29T15:13:04.595Z,99413.21
2022-10-29T15:16:27.003Z,99402.48
2022-10-29T15:19:51.365Z,99406.23
2022-10-29T15:23:09.059Z,99409.75
2022-10-29T15:26:28.192Z,99414.92
2022-10-29T15:30:06.536Z,99415.75
2022-10-29T15:33:28.304Z,99412.25
2022-10-29T15:36:59.405Z,99421.13
2022-10-29T15:40:44.344Z,99418.83
2022-10-29T15:44:37.274Z,99418.22
2022-10-29T15:48:00.782Z,99420.48
2022-10-29T15:51:20.696Z,99420.09
2022-10-29T15:54:38.093Z,99420.48
2022-10-29T15:57:59.718Z,99421.94
2022-10-29T16:01:24.378Z,99425.22
2022-10-29T16:04:43.245Z,99426.66
2022-10-29T16:08:03.690Z,99426.66
2022-10-29T16:11:24.556Z,99412.47
2022-10-29T16:14:42.395Z,99417.59
2022-10-29T16:17:59.502Z,99416.98
2022-10-29T16:21:21.755Z,99409.17
2022-10-29T16:24:40.001Z,99399.45
2022-10-29T16:27:59.620Z,99400.48
2022-10-29T16:31:26.461Z,99407.27
2022-10-29T16:34:42.691Z,99399.03
2022-10-29T16:38:01.030Z,99401.28
2022-10-29T16:41:21.900Z,99400.02
2022-10-29T16:44:43.815Z,99408.03
2022-10-29T16:48:00.581Z,99404.06
2022-10-29T16:51:17.773Z,99417.84
2022-10-29T16:54:36.302Z,99408.58
2022-10-29T16:57:53.098Z,99404.86
2022-10-29T17:01:17.483Z,99410.41
2022-10-29T17:04:48.427Z,99397.41
2022-10-29T17:08:05.299Z,99408.73
2022-10-29T17:11:24.142Z,99419.00
2022-10-29T17:14:44.227Z,99413.42
2022-10-29T17:18:05.066Z,99420.80
2022-10-29T17:21:21.689Z,99413.58
2022-10-29T17:24:49.756Z,99415.82
2022-10-29T17:28:11.874Z,99417.42
2022-10-29T17:31:35.346Z,99420.27
2022-10-29T17:34:57.968Z,99418.61
2022-10-29T17:38:15.821Z,99418.76
2022-10-29T17:41:32.164Z,99420.41
2022-10-29T17:44:48.508Z,99421.43
2022-10-29T17:48:07.881Z,99417.51
2022-10-29T17:51:24.065Z,99425.29
2022-10-29T17:54:40.376Z,99424.65
2022-10-29T17:57:57.486Z,99429.11
2022-10-29T18:01:16.222Z,99430.97
2022-10-29T18:04:36.864Z,99429.89
2022-10-29T18:07:53.017Z,99426.61
2022-10-29T18:11:21.061Z,99422.48
2022-10-29T18:14:37.364Z,99420.83
2022-10-29T18:17:56.811Z,99412.78
2022-10-29T18:21:16.820Z,99417.23
2022-10-29T18:24:56.660Z,99416.52
2022-10-29T18:28:16.250Z,99420.56
2022-10-29T18:31:38.184Z,99422.30
2022-10-29T18:34:56.093Z,99410.12
2022-10-29T18:38:12.576Z,99397.14
2022-10-29T18:41:29.811Z,99407.45
2022-10-29T18:44:46.068Z,99417.48
2022-10-29T18:48:02.702Z,99419.33
2022-10-29T18:51:21.957Z,99418.63
2022-10-29T18:54:36.774Z,99413.66
2022-10-29T18:57:57.014Z,99406.81
2022-10-29T19:01:20.221Z,99405.71
2022-10-29T19:04:36.711Z,99411.61
2022-10-29T19:07:52.953Z,99414.11
2022-10-29T19:11:12.536Z,99411.19
2022-10-29T19:14:28.952Z,99419.55
2022-10-29T19:17:45.516Z,99420.19
2022-10-29T19:21:01.812Z,99422.20
2022-10-29T19:24:24.504Z,99430.02
2022-10-29T19:27:41.420Z,99424.06
2022-10-29T19:31:10.842Z,99434.63
2022-10-29T19:34:32.517Z,99435.22
2022-10-29T19:38:23.398Z,99432.09
2022-10-29T19:41:33.840Z,99429.98
2022-10-29T19:44:55.430Z,99434.30
2022-10-29T19:48:13.316Z,99425.39
2022-10-29T19:51:28.105Z,99434.33
2022-10-29T19:54:48.206Z,99442.67
2022-10-29T19:58:02.231Z,99439.20
2022-10-29T20:01:22.832Z,99436.08
2022-10-29T20:04:41.361Z,99425.50
2022-10-29T20:08:03.349Z,99421.91
2022-10-29T20:11:22.379Z,99424.47
2022-10-29T20:14:39.217Z,99419.79
2022-10-29T20:17:58.649Z,99425.58
2022-10-29T20:21:17.317Z,99428.33
2022-10-29T20:24:33.625Z,99432.45
2022-10-29T20:27:50.342Z,99431.45
2022-10-29T20:31:40.071Z,99439.91
2022-10-29T20:34:52.709Z,99430.06
2022-10-29T20:38:08.955Z,99432.92
2022-10-29T20:44:40.612Z,99436.05
2022-10-29T20:47:57.525Z,99436.16
2022-10-29T20:51:15.381Z,99434.69
2022-10-29T20:54:31.627Z,99442.68
2022-10-29T20:57:47.848Z,99434.20
2022-10-29T21:01:11.392Z,99427.59
2022-10-29T21:04:27.919Z,99438.44
2022-10-29T21:07:45.506Z,99434.77
2022-10-29T21:14:17.453Z,99444.23
2022-10-29T21:17:34.813Z,99445.05
2022-10-29T21:20:50.902Z,99442.88
2022-10-29T21:24:08.038Z,99434.88
2022-10-29T21:30:39.773Z,99427.08
2022-10-29T21:33:58.190Z,99423.46
2022-10-29T21:37:15.857Z,99417.40
2022-10-29T21:40:32.125Z,99430.17
2022-10-29T21:43:48.959Z,99427.97
2022-10-29T21:47:05.101Z,99413.55
2022-10-29T21:50:21.539Z,99402.16
2022-10-29T21:53:38.486Z,99390.84
2022-10-29T21:56:54.506Z,99394.35
2022-10-29T22:00:14.284Z,99400.77
2022-10-29T22:03:30.503Z,99390.77
2022-10-29T22:06:46.532Z,99377.26
2022-10-29T22:14:53.911Z,99388.38
2022-10-29T22:18:10.322Z,99397.37
2022-10-29T22:21:29.540Z,99392.23
2022-10-29T22:24:45.761Z,99376.25
2022-10-29T22:31:18.551Z,99373.13
2022-10-29T22:34:35.140Z,99371.47
2022-10-29T22:37:51.415Z,99359.89
2022-10-29T22:41:13.253Z,99375.05
2022-10-29T22:44:29.912Z,99374.52
2022-10-29T22:47:47.264Z,99364.59
2022-10-29T22:51:11.272Z,99354.67
2022-10-29T22:54:28.344Z,99348.70
2022-10-29T22:57:44.551Z,99351.09
2022-10-29T23:01:10.856Z,99341.25
2022-10-29T23:04:27.520Z,99344.95
2022-10-29T23:07:43.589Z,99344.95
2022-10-29T23:11:00.021Z,99342.64
2022-10-29T23:14:16.099Z,99334.38
2022-10-29T23:17:32.802Z,99322.91
2022-10-29T23:20:49.140Z,99332.53
2022-10-29T23:24:06.058Z,99339.51
2022-10-29T23:27:22.266Z,99334.19
2022-10-29T23:30:38.353Z,99332.83
2022-10-29T23:33:56.413Z,99334.65
2022-10-29T23:37:12.949Z,99338.16
2022-10-29T23:45:42.982Z,99353.47
2022-10-29T23:48:59.380Z,99357.41
2022-10-29T23:52:15.658Z,99361.80
